»·PEaware :: N4GS KSBA-KBUR

N4GS :: KSBA-KBUR

FLIGHT INFORMATION

Flight Status: Arrived
Operator: Privately registered:
United States
More flights under this callsign
Pilot: Greg S. (16931)
Aircraft: PIPER PA-32 SARATOGA
(PA32)
More flights by this aircraft type
Origin: KSBA Santa Barbara Mun
United States
Destination: KBUR Bob Hope-Burbank
United States
More flights between these airports :: More routes between these airports
Route: DEANO V186 FIM TOAKS
File this flight plan on PilotEdge
Remarks: Cat 8
Altitude:
(Current/Filed)
9,500ft
Speed:
(Current/Filed)
150kts
Departed: 07-Jan-18 08:16 AM
Arrived: 07-Jan-18 09:11 AM
Distance/Time
Traveled:
74nm/0:54
Distance/Time
To Go:
Arrived

Flight Plot

Page will automatically refresh every two minutes.

Flight plan parsing failed; only flown route is shown


Map Options




Map Legend


Flown Route
Filed Route
Departure Airport
Arrival Airport
Navaid (VOR, NDB)
Fix

Horizontal Profiles

Position Reports

Time Latitude Longitude Heading Altitude Ground
Speed
07-Jan-18 08:12 34.432570 -119.835088 71 13ft 0kts
07-Jan-18 08:13 34.432570 -119.835088 71 13ft 0kts
07-Jan-18 08:14 34.432570 -119.835088 71 13ft 0kts
07-Jan-18 08:15 34.432570 -119.835088 71 13ft 0kts
07-Jan-18 08:16 34.432570 -119.835088 71 13ft 0kts
07-Jan-18 08:17 34.432570 -119.835088 71 13ft 0kts
07-Jan-18 08:18 34.431229 -119.838066 250 13ft 23kts
07-Jan-18 08:19 34.430798 -119.839443 248 12ft 0kts
07-Jan-18 08:20 34.430798 -119.839443 248 12ft 0kts
07-Jan-18 08:21 34.430748 -119.839634 250 12ft 19kts
07-Jan-18 08:22 34.411131 -119.832272 154 833ft 103kts
07-Jan-18 08:23 34.377106 -119.815026 157 1143ft 154kts
07-Jan-18 08:24 34.333878 -119.793700 160 904ft 170kts
07-Jan-18 08:25 34.289518 -119.777908 167 977ft 168kts
07-Jan-18 08:26 34.244089 -119.763418 162 1004ft 165kts
07-Jan-18 08:27 34.202628 -119.742337 128 1343ft 146kts
07-Jan-18 08:28 34.221187 -119.710531 38 2485ft 112kts
07-Jan-18 08:29 34.232516 -119.682357 83 4094ft 101kts
07-Jan-18 08:30 34.242109 -119.642929 69 5509ft 121kts
07-Jan-18 08:31 34.247926 -119.627276 57 6423ft 104kts
07-Jan-18 08:40 34.437166 -119.818686 59 4645ft 110kts
07-Jan-18 08:41 34.453776 -119.796558 32 6110ft 92kts
07-Jan-18 08:42 34.475140 -119.781858 22 7513ft 89kts
07-Jan-18 08:43 34.487553 -119.749687 82 8529ft 117kts
07-Jan-18 08:44 34.466268 -119.715965 126 9101ft 154kts
07-Jan-18 08:45 34.437175 -119.673561 129 9139ft 165kts
07-Jan-18 08:46 34.408035 -119.633056 123 9606ft 156kts
07-Jan-18 08:47 34.381605 -119.587212 123 9136ft 164kts
07-Jan-18 08:48 34.353199 -119.549301 138 9304ft 160kts
07-Jan-18 08:49 34.325341 -119.512692 113 9493ft 163kts
07-Jan-18 08:50 34.321434 -119.458208 79 9396ft 158kts
07-Jan-18 08:51 34.332797 -119.406750 76 9233ft 169kts
07-Jan-18 08:52 34.329888 -119.353149 100 9254ft 153kts
07-Jan-18 08:53 34.328695 -119.302466 82 9528ft 151kts
07-Jan-18 08:54 34.334579 -119.249255 83 9450ft 156kts
07-Jan-18 08:55 34.335173 -119.197310 81 9620ft 143kts
07-Jan-18 08:56 34.340766 -119.147070 76 9572ft 153kts
07-Jan-18 08:57 34.343293 -119.094199 87 9438ft 157kts
07-Jan-18 08:58 34.339828 -119.041894 86 9690ft 135kts
07-Jan-18 08:59 34.344171 -118.988116 75 9176ft 153kts
07-Jan-18 09:00 34.344032 -118.937061 75 9331ft 151kts
07-Jan-18 09:01 34.346529 -118.885986 79 9345ft 152kts
07-Jan-18 09:02 34.331336 -118.845663 143 9288ft 161kts
07-Jan-18 09:03 34.289467 -118.817530 155 7656ft 182kts
07-Jan-18 09:04 34.243199 -118.796165 162 6053ft 172kts
07-Jan-18 09:05 34.203283 -118.779294 144 6163ft 131kts
07-Jan-18 09:06 34.196667 -118.738840 82 5697ft 129kts
07-Jan-18 09:07 34.198750 -118.703912 94 5005ft 88kts
07-Jan-18 09:08 34.202042 -118.666897 81 4458ft 142kts
07-Jan-18 09:09 34.203263 -118.621135 87 4677ft 151kts
07-Jan-18 09:10 34.201838 -118.581052 86 4334ft 108kts
07-Jan-18 09:11 34.202062 -118.538723 97 4111ft 114kts
07-Jan-18 09:12 34.199234 -118.501338 89 3368ft 130kts
07-Jan-18 09:13 34.198933 -118.457406 90 3215ft 114kts
07-Jan-18 09:14 34.198512 -118.425182 89 1887ft 92kts
07-Jan-18 09:15 34.198214 -118.394404 90 1159ft 91kts
07-Jan-18 09:16 34.197894 -118.367652 90 736ft 71kts
07-Jan-18 09:17 34.198144 -118.360391 11 719ft 6kts
07-Jan-18 09:18 34.198191 -118.360382 1 719ft 0kts
07-Jan-18 09:19 34.198369 -118.360387 358 720ft 7kts
07-Jan-18 09:20 34.198963 -118.363692 278 725ft 9kts
07-Jan-18 09:21 34.199249 -118.364936 70 729ft 3kts
07-Jan-18 09:22 34.200185 -118.364597 334 732ft 1kts
07-Jan-18 09:23 34.200138 -118.364820 175 732ft 0kts

Navigation Log

Ident Type
Flight plan parsing failed, navigation log unavailable